Time;durP1;ratioP1;P1;durP2;ratioP2;P2;SDS_P1;SDS_P2;PMS_P1;PMS_P2;Temp;Humidity;BMP_temperature;BMP_pressure;BME280_temperature;BME280_humidity;BME280_pressure;Samples;Min_cycle;Max_cycle;Signal;HPM_P1;HPM_P2
2023/05/30 00:01:54;;;;;;;10.90;2.60;;;10.70;99.90;;;;;;5110537;27;20205;-78
2023/05/30 00:04:21;;;;;;;12.73;2.97;;;10.70;99.90;;;;;;5114493;27;20653;-78
2023/05/30 00:06:50;;;;;;;11.70;3.30;;;10.80;99.90;;;;;;5114842;27;20201;-77
2023/05/30 00:09:16;;;;;;;10.27;2.97;;;10.60;99.90;;;;;;5114981;27;20209;-78
2023/05/30 00:11:44;;;;;;;9.77;2.70;;;10.70;99.90;;;;;;5115918;27;20215;-77
2023/05/30 00:14:11;;;;;;;10.80;3.03;;;10.70;99.90;;;;;;5114672;27;20589;-76
2023/05/30 00:16:38;;;;;;;9.93;2.90;;;10.70;99.90;;;;;;5116640;27;20585;-78
2023/05/30 00:19:07;;;;;;;10.73;2.70;;;10.60;99.90;;;;;;5131143;27;20196;-77
2023/05/30 00:21:35;;;;;;;10.70;2.53;;;10.50;99.90;;;;;;5117046;27;20207;-78
2023/05/30 00:24:04;;;;;;;9.07;2.80;;;10.50;99.90;;;;;;5111701;27;20216;-78
2023/05/30 00:26:30;;;;;;;13.37;3.63;;;10.40;99.90;;;;;;5113917;27;20209;-78
2023/05/30 00:28:57;;;;;;;12.00;2.80;;;10.40;99.90;;;;;;5123791;27;20200;-77
2023/05/30 00:31:24;;;;;;;9.87;2.80;;;10.50;99.90;;;;;;5114438;27;20201;-77
2023/05/30 00:33:51;;;;;;;11.27;3.00;;;10.40;99.90;;;;;;5112468;27;20228;-77
2023/05/30 00:36:19;;;;;;;19.53;3.90;;;10.50;99.90;;;;;;5114907;27;20308;-78
2023/05/30 00:38:46;;;;;;;14.30;3.40;;;10.40;99.90;;;;;;5115656;28;20197;-78
2023/05/30 00:41:14;;;;;;;12.90;3.10;;;10.30;99.90;;;;;;5114616;28;20223;-78
2023/05/30 00:43:41;;;;;;;13.00;5.07;;;10.30;99.90;;;;;;5114201;28;20220;-78
2023/05/30 00:46:10;;;;;;;10.03;3.23;;;10.20;99.90;;;;;;5115518;27;20192;-78
2023/05/30 00:48:37;;;;;;;12.07;3.00;;;10.10;99.90;;;;;;5118874;27;20212;-76
2023/05/30 00:51:08;;;;;;;11.27;2.90;;;10.10;99.90;;;;;;5113925;27;20204;-78
2023/05/30 00:53:35;;;;;;;14.07;3.00;;;10.00;99.90;;;;;;5113760;28;20235;-78
2023/05/30 00:56:02;;;;;;;11.00;3.10;;;10.10;99.90;;;;;;5113681;27;20220;-77
2023/05/30 00:58:30;;;;;;;12.87;3.90;;;10.10;99.90;;;;;;5113269;28;20208;-77
2023/05/30 01:00:57;;;;;;;13.20;3.70;;;10.20;99.90;;;;;;5120036;27;20201;-78
2023/05/30 01:03:27;;;;;;;15.90;3.37;;;10.10;99.90;;;;;;5109515;27;20235;-77
2023/05/30 01:05:54;;;;;;;14.43;3.10;;;10.00;99.90;;;;;;5114430;27;20201;-77
2023/05/30 01:08:21;;;;;;;16.70;3.20;;;10.00;99.90;;;;;;5113556;27;20209;-77
2023/05/30 01:10:56;;;;;;;12.33;2.87;;;10.00;99.90;;;;;;5114568;28;20250;-77
2023/05/30 01:13:28;;;;;;;15.27;3.13;;;10.10;99.90;;;;;;5123335;27;20232;-77
2023/05/30 01:16:02;;;;;;;13.00;2.80;;;10.00;99.90;;;;;;5113461;27;20221;-80
2023/05/30 01:18:35;;;;;;;13.33;3.47;;;9.80;99.90;;;;;;5114715;27;20578;-80
2023/05/30 01:21:07;;;;;;;16.47;3.80;;;9.80;99.90;;;;;;5120861;27;20227;-79
2023/05/30 01:23:46;;;;;;;13.47;3.93;;;9.80;99.90;;;;;;5106413;27;20365;-80
2023/05/30 01:26:28;;;;;;;11.97;3.33;;;9.70;99.90;;;;;;5112805;27;20205;-80
2023/05/30 01:28:58;;;;;;;13.80;3.50;;;9.70;99.90;;;;;;5111031;28;20209;-78
2023/05/30 01:31:26;;;;;;;11.50;3.70;;;9.80;99.90;;;;;;5113138;27;20200;-80
2023/05/30 01:33:53;;;;;;;10.67;3.00;;;9.80;99.90;;;;;;5119492;27;20220;-79
2023/05/30 01:36:21;;;;;;;16.67;3.43;;;9.80;99.90;;;;;;5131166;27;20226;-79
2023/05/30 01:38:48;;;;;;;18.07;3.33;;;9.70;99.90;;;;;;5123874;27;20205;-79
2023/05/30 01:41:21;;;;;;;16.17;3.60;;;9.70;99.90;;;;;;5115143;27;20295;-79
2023/05/30 01:43:54;;;;;;;12.80;3.23;;;9.80;99.90;;;;;;5111729;27;20221;-78
2023/05/30 01:46:29;;;;;;;14.27;3.23;;;9.80;99.90;;;;;;5116495;28;20201;-79
2023/05/30 01:49:02;;;;;;;14.50;3.83;;;9.70;99.90;;;;;;5116057;27;20196;-78
2023/05/30 01:51:41;;;;;;;16.30;3.70;;;9.70;99.90;;;;;;5114513;27;20205;-79
2023/05/30 01:54:09;;;;;;;14.80;3.10;;;9.60;99.90;;;;;;5113869;27;20201;-79
2023/05/30 01:56:39;;;;;;;15.50;4.30;;;9.40;99.90;;;;;;5113746;27;20219;-78
2023/05/30 01:59:07;;;;;;;13.27;4.27;;;9.60;99.90;;;;;;5115630;27;20295;-79
2023/05/30 02:01:36;;;;;;;11.00;4.57;;;9.50;99.90;;;;;;5116360;27;20583;-78
2023/05/30 02:04:03;;;;;;;11.90;3.67;;;9.60;99.90;;;;;;5115227;27;20220;-79
2023/05/30 02:06:31;;;;;;;8.60;3.00;;;9.50;99.90;;;;;;5115324;27;20196;-79
2023/05/30 02:08:57;;;;;;;14.00;4.40;;;9.40;99.90;;;;;;5119752;27;20204;-78
2023/05/30 02:11:25;;;;;;;12.23;3.70;;;9.30;99.90;;;;;;5123685;27;20336;-79
2023/05/30 02:13:52;;;;;;;13.73;4.47;;;9.30;99.90;;;;;;5113743;27;20220;-80
2023/05/30 02:16:19;;;;;;;15.00;4.03;;;9.40;99.90;;;;;;5115181;28;20231;-79
2023/05/30 02:18:48;;;;;;;13.13;3.63;;;9.40;99.90;;;;;;5116464;27;20211;-79
2023/05/30 02:21:14;;;;;;;12.57;4.23;;;9.50;99.90;;;;;;5115771;28;20205;-79
2023/05/30 02:23:41;;;;;;;17.77;4.37;;;9.40;99.90;;;;;;5116194;27;20213;-79
2023/05/30 02:26:08;;;;;;;11.30;4.17;;;9.40;99.90;;;;;;5116997;27;20196;-79
2023/05/30 02:28:35;;;;;;;12.70;3.73;;;9.30;99.90;;;;;;5118217;28;20284;-79
2023/05/30 02:31:03;;;;;;;18.33;4.47;;;9.30;99.90;;;;;;5114880;28;20211;-79
2023/05/30 02:33:30;;;;;;;13.93;4.27;;;9.10;99.90;;;;;;5113890;27;20225;-79
2023/05/30 02:35:58;;;;;;;19.93;7.00;;;9.00;99.90;;;;;;5116864;27;20249;-79
2023/05/30 02:38:25;;;;;;;15.97;5.60;;;9.00;99.90;;;;;;5116975;27;20212;-79
2023/05/30 02:40:52;;;;;;;14.07;3.93;;;8.90;99.90;;;;;;5119521;27;20211;-79
2023/05/30 02:43:20;;;;;;;13.83;4.17;;;8.90;99.90;;;;;;5116600;27;20228;-79
2023/05/30 02:45:46;;;;;;;16.70;5.10;;;8.90;99.90;;;;;;5114647;28;20200;-79
2023/05/30 02:48:13;;;;;;;16.73;3.73;;;9.00;99.90;;;;;;5114170;27;20201;-79
2023/05/30 02:50:40;;;;;;;13.63;3.70;;;9.00;99.90;;;;;;5114954;27;20663;-79
2023/05/30 02:53:08;;;;;;;15.60;3.70;;;9.00;99.90;;;;;;5114926;28;20289;-78
2023/05/30 02:55:35;;;;;;;15.50;4.53;;;8.90;99.90;;;;;;5112684;27;20248;-78
2023/05/30 02:58:03;;;;;;;22.27;9.03;;;9.00;99.90;;;;;;5114272;28;20197;-79
2023/05/30 03:00:29;;;;;;;20.10;5.80;;;9.10;99.90;;;;;;5114758;27;20213;-79
2023/05/30 03:02:57;;;;;;;13.07;4.47;;;9.00;99.90;;;;;;5112455;27;20228;-78
2023/05/30 03:05:25;;;;;;;15.50;4.30;;;8.90;99.90;;;;;;5115387;27;20209;-78
2023/05/30 03:07:52;;;;;;;18.50;4.60;;;9.10;99.90;;;;;;5119104;27;20231;-79
2023/05/30 03:10:21;;;;;;;17.23;4.20;;;9.10;99.90;;;;;;5112751;28;20205;-79
2023/05/30 03:12:47;;;;;;;14.57;4.47;;;8.80;99.90;;;;;;5112828;28;20225;-79
2023/05/30 03:15:14;;;;;;;19.93;4.60;;;9.10;99.90;;;;;;5115785;27;20231;-79
2023/05/30 03:17:43;;;;;;;16.17;4.57;;;9.20;99.90;;;;;;5118368;27;20201;-79
2023/05/30 03:20:11;;;;;;;14.80;4.53;;;9.10;99.90;;;;;;5121061;27;20588;-79
2023/05/30 03:22:38;;;;;;;13.53;4.13;;;9.10;99.90;;;;;;5119235;27;20245;-77
2023/05/30 03:25:06;;;;;;;14.10;4.50;;;9.00;99.90;;;;;;5118897;27;20197;-77
2023/05/30 03:27:34;;;;;;;18.63;5.67;;;9.00;99.90;;;;;;5117747;27;20220;-78
2023/05/30 03:30:03;;;;;;;15.60;5.00;;;9.10;99.90;;;;;;5116375;28;20287;-78
2023/05/30 03:32:30;;;;;;;17.23;4.20;;;9.20;99.90;;;;;;5119259;27;20672;-78
2023/05/30 03:34:57;;;;;;;16.77;4.93;;;9.30;99.90;;;;;;5114181;27;20584;-76
2023/05/30 03:37:24;;;;;;;17.63;5.00;;;9.40;99.90;;;;;;5115054;27;20211;-79
2023/05/30 03:39:51;;;;;;;15.27;4.43;;;9.50;99.90;;;;;;5118464;27;20254;-79
2023/05/30 03:42:18;;;;;;;15.53;4.63;;;9.30;99.90;;;;;;5115582;27;20229;-79
2023/05/30 03:44:46;;;;;;;16.03;4.80;;;9.40;99.90;;;;;;5114883;28;20201;-79
2023/05/30 03:47:13;;;;;;;14.10;4.63;;;9.50;99.90;;;;;;5115392;27;20571;-79
2023/05/30 03:49:39;;;;;;;12.10;3.67;;;9.60;99.90;;;;;;5115492;27;20240;-79
2023/05/30 03:52:07;;;;;;;17.97;4.60;;;9.60;99.90;;;;;;5112801;27;20221;-78
2023/05/30 03:54:34;;;;;;;21.93;5.10;;;9.70;99.90;;;;;;5109781;27;20209;-78
2023/05/30 03:57:00;;;;;;;15.17;4.07;;;9.70;99.90;;;;;;5114095;28;20221;-77
2023/05/30 03:59:30;;;;;;;14.47;4.10;;;9.60;99.90;;;;;;5120108;28;20268;-77
2023/05/30 04:01:58;;;;;;;15.47;3.70;;;9.70;99.90;;;;;;5113666;27;20527;-78
2023/05/30 04:04:26;;;;;;;13.53;4.73;;;9.80;99.90;;;;;;5122054;27;20209;-79
2023/05/30 04:06:53;;;;;;;18.27;4.40;;;9.90;99.90;;;;;;5124488;27;20601;-79
2023/05/30 04:09:20;;;;;;;14.03;4.23;;;9.80;99.90;;;;;;5116142;27;20201;-78
2023/05/30 04:11:47;;;;;;;13.50;5.00;;;9.90;99.90;;;;;;5129696;27;20201;-78
2023/05/30 04:14:14;;;;;;;14.23;3.70;;;9.90;99.90;;;;;;5112806;27;20545;-78
2023/05/30 04:16:41;;;;;;;14.90;4.50;;;10.00;99.90;;;;;;5113815;27;20225;-77
2023/05/30 04:19:10;;;;;;;14.80;4.00;;;10.20;99.90;;;;;;5114390;27;20577;-78
2023/05/30 04:21:37;;;;;;;17.30;4.60;;;10.40;99.90;;;;;;5106040;27;20202;-78
2023/05/30 04:24:04;;;;;;;13.17;4.47;;;10.20;99.90;;;;;;5113366;27;20224;-77
2023/05/30 04:26:32;;;;;;;16.13;3.93;;;10.40;99.90;;;;;;5117259;27;20196;-78
2023/05/30 04:28:59;;;;;;;16.87;4.30;;;10.30;99.90;;;;;;5118734;27;20733;-78
2023/05/30 04:31:26;;;;;;;13.63;3.73;;;10.00;99.90;;;;;;5113052;27;20665;-78
2023/05/30 04:33:54;;;;;;;15.17;4.37;;;10.10;99.90;;;;;;5109440;27;20221;-78
2023/05/30 04:36:23;;;;;;;16.93;3.93;;;10.20;99.90;;;;;;5110073;28;20604;-77
2023/05/30 04:38:52;;;;;;;17.57;3.90;;;10.00;99.90;;;;;;5113062;27;20217;-77
2023/05/30 04:41:20;;;;;;;9.40;3.27;;;10.20;99.90;;;;;;5109406;27;20201;-77
2023/05/30 04:43:52;;;;;;;13.17;3.90;;;10.40;99.90;;;;;;5106391;27;20684;-77
2023/05/30 04:46:21;;;;;;;12.20;3.83;;;10.50;99.90;;;;;;5113902;28;20273;-78
2023/05/30 04:48:52;;;;;;;23.77;5.07;;;10.40;99.90;;;;;;5113414;27;20244;-77
2023/05/30 04:51:20;;;;;;;15.63;5.07;;;10.30;99.90;;;;;;5117081;27;20215;-78
2023/05/30 04:53:48;;;;;;;12.77;4.07;;;10.30;99.90;;;;;;5112386;28;20242;-77
2023/05/30 04:56:15;;;;;;;13.97;4.30;;;10.60;99.90;;;;;;5110334;27;20225;-78
2023/05/30 04:58:44;;;;;;;12.93;4.70;;;10.70;99.90;;;;;;5107370;27;20248;-77
2023/05/30 05:01:11;;;;;;;14.53;4.57;;;10.80;99.90;;;;;;5111957;28;20207;-79
2023/05/30 05:03:38;;;;;;;17.40;4.90;;;10.50;99.90;;;;;;5114423;27;20288;-78
2023/05/30 05:06:06;;;;;;;12.30;4.43;;;10.80;99.90;;;;;;5117180;28;20201;-78
2023/05/30 05:08:33;;;;;;;12.90;4.40;;;11.00;99.90;;;;;;5122253;27;20204;-78
2023/05/30 05:11:03;;;;;;;19.53;4.57;;;10.70;99.90;;;;;;5124667;27;20196;-78
2023/05/30 05:13:29;;;;;;;14.87;4.23;;;10.90;99.90;;;;;;5117819;27;20229;-78
2023/05/30 05:15:56;;;;;;;15.83;4.07;;;11.00;99.90;;;;;;5117440;27;20230;-78
2023/05/30 05:18:23;;;;;;;10.83;4.30;;;11.10;99.90;;;;;;5125194;27;20211;-78
2023/05/30 05:20:50;;;;;;;13.03;4.67;;;11.20;99.90;;;;;;5119456;27;20207;-78
2023/05/30 05:23:17;;;;;;;10.57;4.27;;;10.90;99.90;;;;;;5118345;27;20220;-78
2023/05/30 05:25:45;;;;;;;14.43;4.20;;;10.90;99.90;;;;;;5120561;27;20247;-78
2023/05/30 05:28:13;;;;;;;12.30;4.47;;;10.70;99.90;;;;;;5121280;27;20680;-78
2023/05/30 05:30:40;;;;;;;23.23;4.70;;;11.10;99.90;;;;;;5120271;27;20212;-78
2023/05/30 05:33:07;;;;;;;15.33;4.43;;;11.50;99.90;;;;;;5127594;27;20225;-78
2023/05/30 05:35:35;;;;;;;15.40;4.90;;;11.70;99.90;;;;;;5123023;27;20205;-78
2023/05/30 05:38:02;;;;;;;11.67;4.67;;;11.60;99.90;;;;;;5118607;27;20709;-79
2023/05/30 05:40:29;;;;;;;18.10;4.93;;;11.50;99.90;;;;;;5118976;27;20200;-78
2023/05/30 05:42:56;;;;;;;16.73;4.83;;;11.50;99.90;;;;;;5120875;27;20324;-81
2023/05/30 05:45:24;;;;;;;16.83;4.60;;;11.30;99.90;;;;;;5126609;27;20235;-78
2023/05/30 05:47:51;;;;;;;14.50;4.60;;;11.70;99.90;;;;;;5123519;27;20213;-78
2023/05/30 05:50:18;;;;;;;14.80;4.60;;;12.10;99.90;;;;;;5122449;27;20747;-79
2023/05/30 05:52:45;;;;;;;14.40;5.00;;;12.50;99.90;;;;;;5119879;27;20224;-78
2023/05/30 05:55:11;;;;;;;16.00;4.77;;;12.70;99.90;;;;;;5126266;27;20205;-78
2023/05/30 05:57:38;;;;;;;14.33;4.50;;;12.40;99.90;;;;;;5119873;27;20225;-78
2023/05/30 06:00:07;;;;;;;13.43;4.90;;;12.30;99.90;;;;;;5126412;27;20211;-78
2023/05/30 06:02:35;;;;;;;18.13;4.40;;;12.00;99.90;;;;;;5121726;27;20225;-79
2023/05/30 06:05:02;;;;;;;14.63;4.77;;;12.10;99.90;;;;;;5135503;27;20227;-78
2023/05/30 06:07:28;;;;;;;14.90;4.27;;;12.20;99.90;;;;;;5123442;28;20197;-79
2023/05/30 06:09:57;;;;;;;15.77;5.40;;;12.10;99.90;;;;;;5122094;28;20268;-77
2023/05/30 06:12:24;;;;;;;15.80;4.87;;;12.30;99.90;;;;;;5129337;27;20768;-79
2023/05/30 06:14:50;;;;;;;14.40;5.63;;;12.10;99.90;;;;;;5120222;28;20256;-78
2023/05/30 06:17:17;;;;;;;14.53;4.30;;;12.10;99.90;;;;;;5129057;28;20287;-78
2023/05/30 06:19:45;;;;;;;14.03;4.47;;;11.90;99.90;;;;;;5129397;27;20197;-79
2023/05/30 06:22:12;;;;;;;11.43;4.30;;;12.10;99.90;;;;;;5128703;28;20217;-78
2023/05/30 06:24:39;;;;;;;13.60;4.93;;;12.10;99.90;;;;;;5135094;27;20219;-79
2023/05/30 06:27:06;;;;;;;17.37;4.73;;;12.30;99.90;;;;;;5134039;28;20267;-79
2023/05/30 06:29:34;;;;;;;14.73;5.50;;;12.40;99.90;;;;;;5138296;27;20204;-78
2023/05/30 06:32:01;;;;;;;12.67;4.77;;;12.40;99.90;;;;;;5136288;28;20595;-78
2023/05/30 06:34:28;;;;;;;15.73;4.17;;;12.60;99.90;;;;;;5140487;27;20214;-78
2023/05/30 06:36:56;;;;;;;14.83;4.60;;;12.50;99.90;;;;;;5134157;27;20213;-78
2023/05/30 06:39:23;;;;;;;19.10;4.60;;;12.60;99.90;;;;;;5135417;27;20200;-79
2023/05/30 06:41:50;;;;;;;12.30;4.07;;;12.60;99.90;;;;;;5136519;27;20291;-78
2023/05/30 06:44:17;;;;;;;13.47;4.70;;;12.30;99.90;;;;;;5144465;27;20228;-78
2023/05/30 06:46:43;;;;;;;14.73;5.37;;;12.30;99.90;;;;;;5125670;27;20244;-78
2023/05/30 06:49:10;;;;;;;13.60;4.33;;;12.20;99.90;;;;;;5132489;27;20202;-78
2023/05/30 06:51:37;;;;;;;12.60;4.67;;;12.40;99.90;;;;;;5142945;27;20621;-77
2023/05/30 06:54:05;;;;;;;14.80;4.50;;;12.70;99.90;;;;;;5125438;28;20231;-77
2023/05/30 06:56:32;;;;;;;11.00;4.10;;;12.70;99.90;;;;;;5133582;27;20224;-78
2023/05/30 06:58:59;;;;;;;18.40;5.30;;;12.70;99.90;;;;;;5136827;27;20197;-78
2023/05/30 07:01:26;;;;;;;14.27;4.30;;;12.60;99.90;;;;;;5124864;27;20204;-80
2023/05/30 07:03:53;;;;;;;19.00;4.93;;;12.50;99.90;;;;;;5129998;27;20227;-79
2023/05/30 07:06:19;;;;;;;17.57;4.57;;;12.80;99.90;;;;;;5132515;27;20201;-79
2023/05/30 07:08:46;;;;;;;14.47;4.57;;;13.00;99.90;;;;;;5143567;27;20275;-78
2023/05/30 07:11:14;;;;;;;15.90;5.07;;;13.10;99.90;;;;;;5142274;27;20200;-78
2023/05/30 07:13:41;;;;;;;15.03;4.90;;;13.10;99.90;;;;;;5128603;27;20700;-77
2023/05/30 07:16:08;;;;;;;20.47;4.73;;;13.30;99.90;;;;;;5135884;27;20216;-78
2023/05/30 07:18:35;;;;;;;11.03;3.90;;;13.10;99.90;;;;;;5136997;27;20273;-79
2023/05/30 07:21:01;;;;;;;12.20;4.27;;;13.10;99.90;;;;;;5132400;27;20670;-79
2023/05/30 07:23:28;;;;;;;9.97;4.10;;;13.10;99.90;;;;;;5134881;27;20227;-80
2023/05/30 07:25:55;;;;;;;11.83;4.40;;;13.30;99.90;;;;;;5138418;27;20204;-78
2023/05/30 07:28:23;;;;;;;16.47;4.87;;;13.10;99.90;;;;;;5130094;27;20200;-81
2023/05/30 07:30:50;;;;;;;12.27;4.13;;;13.20;99.90;;;;;;5135415;27;20201;-81
2023/05/30 07:33:17;;;;;;;13.07;5.03;;;13.20;99.90;;;;;;5126527;27;20221;-80
2023/05/30 07:35:43;;;;;;;13.50;4.93;;;13.20;99.90;;;;;;5129250;27;20201;-79
2023/05/30 07:38:10;;;;;;;16.53;5.30;;;13.20;99.90;;;;;;5130467;27;20222;-79
2023/05/30 07:40:37;;;;;;;16.53;4.67;;;13.40;99.90;;;;;;5129305;27;20201;-80
2023/05/30 07:43:04;;;;;;;14.13;4.63;;;13.40;99.90;;;;;;5131135;27;20600;-81
2023/05/30 07:45:33;;;;;;;12.23;5.77;;;13.50;99.90;;;;;;5119049;27;20205;-81
2023/05/30 07:47:59;;;;;;;11.20;4.27;;;13.60;99.90;;;;;;5109830;27;20198;-79
2023/05/30 07:50:26;;;;;;;14.73;5.40;;;13.60;99.90;;;;;;5128504;27;20204;-80
2023/05/30 07:52:53;;;;;;;13.07;4.80;;;13.60;99.90;;;;;;5124948;27;20304;-80
2023/05/30 07:55:20;;;;;;;12.23;4.77;;;13.40;99.90;;;;;;5116982;27;20205;-80
2023/05/30 07:57:47;;;;;;;14.97;4.90;;;13.80;99.90;;;;;;5117025;27;20236;-80
2023/05/30 08:00:15;;;;;;;17.73;5.20;;;13.90;99.90;;;;;;5113134;27;20289;-81
2023/05/30 08:02:45;;;;;;;20.00;6.43;;;14.20;99.90;;;;;;5115253;27;20225;-79
2023/05/30 08:05:12;;;;;;;12.67;4.97;;;13.90;99.90;;;;;;5113248;27;20648;-80
2023/05/30 08:07:39;;;;;;;13.17;5.00;;;14.10;99.90;;;;;;5135243;27;20200;-79
2023/05/30 08:10:07;;;;;;;11.37;5.07;;;14.20;99.90;;;;;;5122741;27;20281;-80
2023/05/30 08:12:34;;;;;;;14.87;6.17;;;14.40;99.90;;;;;;5128323;27;20216;-81
2023/05/30 08:15:01;;;;;;;14.17;6.27;;;14.50;99.90;;;;;;5125484;27;20568;-81
2023/05/30 08:17:29;;;;;;;16.03;6.83;;;14.30;99.90;;;;;;5124747;27;20612;-82
2023/05/30 08:19:57;;;;;;;14.87;6.43;;;14.70;99.90;;;;;;5125551;27;20242;-80
2023/05/30 08:22:24;;;;;;;17.97;6.70;;;14.80;99.90;;;;;;5127725;27;20259;-80
2023/05/30 08:24:53;;;;;;;15.63;5.93;;;14.50;99.90;;;;;;5128507;27;20206;-80
2023/05/30 08:27:21;;;;;;;17.40;6.70;;;14.20;99.90;;;;;;5128167;27;20239;-81
2023/05/30 08:29:49;;;;;;;15.10;6.20;;;14.30;99.90;;;;;;5127889;27;20218;-82
2023/05/30 08:32:16;;;;;;;14.60;6.70;;;14.60;99.90;;;;;;5125779;27;20249;-82
2023/05/30 08:34:43;;;;;;;11.43;5.20;;;14.50;99.90;;;;;;5125344;27;20270;-80
2023/05/30 08:37:12;;;;;;;12.57;6.70;;;14.70;99.90;;;;;;5126716;27;20220;-80
2023/05/30 08:39:39;;;;;;;11.03;5.27;;;14.70;99.90;;;;;;5126721;27;20239;-80
2023/05/30 08:42:06;;;;;;;14.13;6.30;;;15.00;99.90;;;;;;5124950;27;20692;-81
2023/05/30 08:44:33;;;;;;;16.53;5.50;;;14.70;99.90;;;;;;5124891;27;20617;-80
2023/05/30 08:47:00;;;;;;;12.57;5.07;;;14.90;99.90;;;;;;5125289;27;20193;-80
2023/05/30 08:49:32;;;;;;;14.00;5.63;;;15.20;99.90;;;;;;5123819;27;20211;-81
2023/05/30 08:52:01;;;;;;;14.80;5.32;;;15.60;99.90;;;;;;5128646;27;20236;-81
2023/05/30 08:54:36;;;;;;;15.00;5.30;;;16.00;99.90;;;;;;5137155;27;20196;-78
2023/05/30 08:57:07;;;;;;;13.23;5.35;;;15.90;99.90;;;;;;5128798;27;20585;-79
2023/05/30 08:59:34;;;;;;;14.77;4.72;;;16.20;99.90;;;;;;5131159;27;20200;-78
2023/05/30 09:02:02;;;;;;;15.68;5.32;;;15.90;99.90;;;;;;5124497;27;20221;-79
2023/05/30 09:04:30;;;;;;;12.25;5.20;;;16.30;99.90;;;;;;5131566;27;20224;-78
2023/05/30 09:06:58;;;;;;;13.98;5.03;;;16.30;99.90;;;;;;5125781;27;20236;-78
2023/05/30 09:09:26;;;;;;;11.65;5.60;;;15.80;99.90;;;;;;5136338;27;20232;-78
2023/05/30 09:11:54;;;;;;;10.13;4.55;;;16.50;99.90;;;;;;5136163;27;20203;-78
2023/05/30 09:14:21;;;;;;;8.88;4.15;;;16.70;99.90;;;;;;5129039;27;20205;-79
2023/05/30 09:16:48;;;;;;;10.00;4.13;;;17.00;99.90;;;;;;5130961;27;20216;-78
2023/05/30 09:19:15;;;;;;;8.88;4.35;;;17.60;99.90;;;;;;5125174;27;20248;-79
2023/05/30 09:21:42;;;;;;;9.05;4.60;;;17.60;99.90;;;;;;5133870;27;20267;-79
2023/05/30 09:24:09;;;;;;;13.77;4.70;;;17.30;99.90;;;;;;5130140;27;20272;-81
2023/05/30 09:26:36;;;;;;;10.85;4.22;;;16.50;99.90;;;;;;5132314;27;20253;-80
2023/05/30 09:29:10;;;;;;;9.07;4.07;;;16.80;99.90;;;;;;5130774;27;20207;-79
2023/05/30 09:31:38;;;;;;;12.45;4.43;;;17.50;1.00;;;;;;5132604;27;20656;-79
2023/05/30 09:34:06;;;;;;;9.02;4.70;;;17.90;1.00;;;;;;5137070;27;20224;-79
2023/05/30 09:36:33;;;;;;;10.60;4.10;;;18.20;1.00;;;;;;5125065;27;20329;-78
2023/05/30 09:39:02;;;;;;;10.23;3.90;;;18.40;1.00;;;;;;5130433;27;20197;-78
2023/05/30 09:41:29;;;;;;;14.07;5.00;;;17.90;1.00;;;;;;5129900;27;20299;-78
2023/05/30 09:43:57;;;;;;;6.68;4.00;;;17.10;1.00;;;;;;5129257;27;20239;-78
2023/05/30 09:46:27;;;;;;;11.10;4.75;;;17.50;1.00;;;;;;5125885;27;20681;-78
2023/05/30 09:48:54;;;;;;;8.73;4.03;;;18.00;1.00;;;;;;5137302;27;20672;-78
2023/05/30 09:51:22;;;;;;;10.02;4.30;;;17.90;1.00;;;;;;5128032;27;20235;-78
2023/05/30 09:53:57;;;;;;;8.15;4.35;;;18.10;1.00;;;;;;5131772;27;20221;-78
2023/05/30 09:56:31;;;;;;;8.50;4.10;;;18.60;1.00;;;;;;5115705;28;20223;-78
2023/05/30 09:58:58;;;;;;;8.82;3.97;;;18.60;99.90;;;;;;5115225;27;20237;-78
2023/05/30 10:01:36;;;;;;;8.98;3.75;;;19.40;99.90;;;;;;5121536;28;20266;-79
2023/05/30 10:04:10;;;;;;;11.27;4.25;;;19.60;1.00;;;;;;5121415;27;20630;-79
2023/05/30 10:06:40;;;;;;;9.02;3.90;;;19.30;1.00;;;;;;5133261;27;20261;-78
2023/05/30 10:09:07;;;;;;;8.25;3.97;;;19.10;1.00;;;;;;5120614;27;20616;-77
2023/05/30 10:11:35;;;;;;;8.82;3.80;;;19.40;1.00;;;;;;5128148;27;20200;-78
2023/05/30 10:14:01;;;;;;;9.55;4.00;;;19.00;99.90;;;;;;5135623;27;20227;-79
2023/05/30 10:16:33;;;;;;;8.95;3.90;;;19.40;99.90;;;;;;5138392;27;20204;-77
2023/05/30 10:19:02;;;;;;;8.02;3.70;;;18.50;1.00;;;;;;5128072;27;20220;-77
2023/05/30 10:21:32;;;;;;;8.90;3.40;;;18.90;1.00;;;;;;5129575;28;20583;-77
2023/05/30 10:24:00;;;;;;;8.00;3.75;;;18.70;99.90;;;;;;5110631;27;20225;-77
2023/05/30 10:26:31;;;;;;;7.45;3.33;;;19.00;1.00;;;;;;5114014;28;20207;-78
2023/05/30 10:28:59;;;;;;;10.63;4.28;;;19.90;99.90;;;;;;5115037;27;20193;-78
2023/05/30 10:31:26;;;;;;;8.25;3.63;;;19.60;1.00;;;;;;5135157;27;20210;-78
2023/05/30 10:33:55;;;;;;;8.15;4.38;;;19.80;1.00;;;;;;5127146;27;20270;-78
2023/05/30 10:36:22;;;;;;;6.28;3.88;;;19.20;85.10;;;;;;5112369;27;20211;-77
2023/05/30 10:39:08;;;;;;;9.70;3.95;;;19.00;1.00;;;;;;5116875;27;20227;-79
2023/05/30 10:41:42;;;;;;;7.95;3.33;;;19.60;1.00;;;;;;5126744;27;20192;-77
2023/05/30 10:44:17;;;;;;;7.85;3.63;;;20.10;1.00;;;;;;5125552;27;20570;-77
2023/05/30 10:46:52;;;;;;;5.82;3.10;;;20.50;1.00;;;;;;5121413;28;20211;-77
2023/05/30 10:49:25;;;;;;;6.82;3.40;;;20.20;1.00;;;;;;5117004;28;20207;-77
2023/05/30 10:52:03;;;;;;;8.75;3.35;;;20.50;1.00;;;;;;5118287;27;20299;-77
2023/05/30 10:54:31;;;;;;;5.82;3.10;;;20.50;1.00;;;;;;5129525;27;20656;-78
2023/05/30 10:56:59;;;;;;;8.23;3.95;;;20.40;1.00;;;;;;5117706;27;20680;-77
2023/05/30 10:59:26;;;;;;;8.95;3.50;;;20.90;1.00;;;;;;5124990;27;20204;-76
2023/05/30 11:02:01;;;;;;;4.80;2.95;;;20.70;99.90;;;;;;5117635;28;20205;-77
2023/05/30 11:04:34;;;;;;;9.45;3.13;;;19.90;1.00;;;;;;5117158;27;20195;-77
2023/05/30 11:07:03;;;;;;;5.72;3.30;;;19.40;1.00;;;;;;5106635;27;20254;-77
2023/05/30 11:09:30;;;;;;;5.80;2.70;;;19.80;1.00;;;;;;5115081;27;20209;-76
2023/05/30 11:11:58;;;;;;;5.63;3.30;;;20.20;1.00;;;;;;5116325;27;20208;-77
2023/05/30 11:14:26;;;;;;;8.70;3.60;;;20.30;1.00;;;;;;5128489;28;20203;-76
2023/05/30 11:16:59;;;;;;;4.43;2.90;;;20.30;99.90;;;;;;5108829;27;20205;-77
2023/05/30 11:19:27;;;;;;;5.70;3.45;;;20.40;99.90;;;;;;5114848;27;20220;-77
2023/05/30 11:21:56;;;;;;;5.63;3.10;;;20.50;99.90;;;;;;5114276;28;20205;-76
2023/05/30 11:24:24;;;;;;;4.93;2.92;;;20.60;99.90;;;;;;5118144;27;20223;-77
2023/05/30 11:26:55;;;;;;;6.80;3.17;;;20.60;99.90;;;;;;5120550;27;20211;-76
2023/05/30 11:29:44;;;;;;;6.20;3.55;;;20.60;99.90;;;;;;5118744;27;20201;-76
2023/05/30 11:32:11;;;;;;;6.60;3.60;;;20.30;99.90;;;;;;5109476;28;20216;-77
2023/05/30 11:34:38;;;;;;;5.30;3.45;;;19.20;99.90;;;;;;5117485;27;20201;-77
2023/05/30 11:37:08;;;;;;;5.10;3.00;;;19.00;1.00;;;;;;5118171;28;20201;-77
2023/05/30 11:39:36;;;;;;;5.85;3.28;;;19.60;1.00;;;;;;5117267;27;20295;-78
2023/05/30 11:42:03;;;;;;;5.78;3.08;;;20.00;1.00;;;;;;5117894;27;20225;-79
2023/05/30 11:44:31;;;;;;;6.93;2.95;;;20.50;99.90;;;;;;5117165;27;20704;-76
2023/05/30 11:47:02;;;;;;;3.10;2.40;;;20.40;1.00;;;;;;5116228;27;20205;-77
2023/05/30 11:49:29;;;;;;;3.67;2.60;;;20.80;1.00;;;;;;5123845;27;20211;-77
2023/05/30 11:51:56;;;;;;;4.88;2.72;;;20.60;1.00;;;;;;5129352;27;20292;-78
2023/05/30 11:54:26;;;;;;;3.92;3.00;;;19.50;99.90;;;;;;5119703;27;20211;-78
2023/05/30 11:56:55;;;;;;;3.28;2.72;;;20.70;1.00;;;;;;5109250;27;20205;-78
2023/05/30 11:59:22;;;;;;;3.88;2.90;;;20.00;1.00;;;;;;5117351;28;20719;-77
2023/05/30 12:01:57;;;;;;;4.13;2.67;;;19.50;1.00;;;;;;5110763;27;20289;-77
2023/05/30 12:04:26;;;;;;;4.53;2.60;;;19.80;99.90;;;;;;5113580;27;20209;-78
2023/05/30 12:06:53;;;;;;;5.28;3.20;;;19.80;1.00;;;;;;5114947;27;20208;-77
2023/05/30 12:09:21;;;;;;;4.13;2.95;;;19.20;1.00;;;;;;5115693;27;20197;-78
2023/05/30 12:12:00;;;;;;;3.20;2.90;;;19.90;1.00;;;;;;5115109;27;20741;-79
2023/05/30 12:14:37;;;;;;;6.88;3.00;;;19.40;1.00;;;;;;5113774;28;20240;-78
2023/05/30 12:17:07;;;;;;;4.68;2.72;;;18.70;99.90;;;;;;5115692;28;20197;-80
2023/05/30 12:19:34;;;;;;;5.30;3.28;;;20.20;1.00;;;;;;5124391;27;20228;-80
2023/05/30 12:22:04;;;;;;;6.85;3.50;;;20.60;1.00;;;;;;5118827;27;20315;-79
2023/05/30 12:24:36;;;;;;;5.35;2.75;;;20.20;1.00;;;;;;5131906;27;20212;-79
2023/05/30 12:27:05;;;;;;;6.88;2.65;;;20.60;1.00;;;;;;5114887;27;20205;-79
2023/05/30 12:29:33;;;;;;;4.72;2.90;;;21.10;1.00;;;;;;5116294;28;20239;-79
2023/05/30 12:32:01;;;;;;;5.30;3.20;;;20.70;31.70;;;;;;5116977;27;20223;-79
2023/05/30 12:34:38;;;;;;;3.45;2.53;;;19.50;1.00;;;;;;5130003;27;20254;-78
2023/05/30 12:37:07;;;;;;;4.90;3.03;;;19.10;1.00;;;;;;5119925;27;20211;-78
2023/05/30 12:39:34;;;;;;;4.63;3.35;;;18.90;99.90;;;;;;5123211;27;20231;-78
2023/05/30 12:42:08;;;;;;;6.93;4.18;;;17.90;1.00;;;;;;5114731;28;20304;-78
2023/05/30 12:44:46;;;;;;;4.03;3.28;;;18.40;1.00;;;;;;5111308;28;20250;-77
2023/05/30 12:47:13;;;;;;;4.72;3.30;;;18.70;99.90;;;;;;5123944;27;20204;-79
2023/05/30 12:49:40;;;;;;;4.47;3.80;;;18.60;1.00;;;;;;5127978;27;20207;-78